createdAt,value
2023-04-20T00:00:30.441Z,8.06
2023-04-20T00:01:30.513Z,8.01
2023-04-20T00:02:30.556Z,8.05
2023-04-20T00:03:30.688Z,8.00
2023-04-20T00:04:30.425Z,8.06
2023-04-20T00:05:30.503Z,8.01
2023-04-20T00:06:30.382Z,7.93
2023-04-20T00:07:30.425Z,7.94
2023-04-20T00:08:30.357Z,7.90
2023-04-20T00:09:30.353Z,7.93
2023-04-20T00:10:30.349Z,7.91
2023-04-20T00:11:30.347Z,7.91
2023-04-20T00:12:30.330Z,7.90
2023-04-20T00:13:30.388Z,7.79
2023-04-20T00:14:30.306Z,7.80
2023-04-20T00:15:30.325Z,7.82
2023-04-20T00:16:30.348Z,7.85
2023-04-20T00:17:30.350Z,7.75
2023-04-20T00:18:30.261Z,7.82
2023-04-20T00:19:30.258Z,7.83
2023-04-20T00:20:30.267Z,7.75
2023-04-20T00:21:30.229Z,7.75
2023-04-20T00:22:30.280Z,7.83
2023-04-20T00:23:30.214Z,7.79
2023-04-20T00:24:30.195Z,7.82
2023-04-20T00:25:30.200Z,7.83
2023-04-20T00:26:30.175Z,7.85
2023-04-20T00:27:30.247Z,7.76
2023-04-20T00:28:30.141Z,7.83
2023-04-20T00:29:30.148Z,7.82
2023-04-20T00:30:30.156Z,7.77
2023-04-20T00:31:30.171Z,7.73
2023-04-20T00:32:30.209Z,7.83
2023-04-20T00:33:30.102Z,7.87
2023-04-20T00:34:30.096Z,7.82
2023-04-20T00:35:30.088Z,7.79
2023-04-20T00:36:30.150Z,7.82
2023-04-20T00:37:30.129Z,7.88
2023-04-20T00:38:30.041Z,7.87
2023-04-20T00:39:30.061Z,7.88
2023-04-20T00:40:30.017Z,7.91
2023-04-20T00:41:30.050Z,7.82
2023-04-20T00:42:30.073Z,7.85
2023-04-20T00:43:30.008Z,7.90
2023-04-20T00:44:29.969Z,7.94
2023-04-20T00:45:30.016Z,7.90
2023-04-20T00:46:29.982Z,7.97
2023-04-20T00:47:30.044Z,7.88
2023-04-20T00:48:29.947Z,7.83
2023-04-20T00:49:29.937Z,7.85
2023-04-20T00:50:29.928Z,7.90
2023-04-20T00:51:29.902Z,7.82
2023-04-20T00:52:29.973Z,7.87
2023-04-20T00:53:29.878Z,7.80
2023-04-20T00:54:29.889Z,7.90
2023-04-20T00:55:29.869Z,7.90
2023-04-20T00:56:29.860Z,7.82
2023-04-20T00:57:29.847Z,7.75
2023-04-20T00:58:29.991Z,7.80
2023-04-20T00:59:29.817Z,7.70
2023-04-20T01:00:29.811Z,7.77
2023-04-20T01:01:29.824Z,7.77
2023-04-20T01:02:29.970Z,7.77
2023-04-20T01:03:30.075Z,7.61
2023-04-20T01:04:29.900Z,7.76
2023-04-20T01:05:29.801Z,7.76
2023-04-20T01:06:29.755Z,7.76
2023-04-20T01:07:29.745Z,7.79
2023-04-20T01:08:29.795Z,7.66
2023-04-20T01:09:29.724Z,7.75
2023-04-20T01:10:29.711Z,7.72
2023-04-20T01:11:29.684Z,7.69
2023-04-20T01:12:29.693Z,7.63
2023-04-20T01:13:29.806Z,7.79
2023-04-20T01:14:29.690Z,7.80
2023-04-20T01:15:29.688Z,7.66
2023-04-20T01:16:29.787Z,7.60
2023-04-20T01:17:29.679Z,7.58
2023-04-20T01:18:29.686Z,7.70
2023-04-20T01:19:29.628Z,7.60
2023-04-20T01:20:29.601Z,7.72
2023-04-20T01:21:29.605Z,7.63
2023-04-20T01:22:29.586Z,7.57
2023-04-20T01:23:29.628Z,7.66
2023-04-20T01:24:29.577Z,7.61
2023-04-20T01:25:29.613Z,7.58
2023-04-20T01:26:29.546Z,7.56
2023-04-20T01:27:29.540Z,7.60
2023-04-20T01:28:29.511Z,7.54
2023-04-20T01:29:29.524Z,7.56
2023-04-20T01:30:29.612Z,7.45
2023-04-20T01:31:29.556Z,7.45
2023-04-20T01:32:29.494Z,7.48
2023-04-20T01:33:29.487Z,7.50
2023-04-20T01:34:29.497Z,7.40
2023-04-20T01:35:29.517Z,7.42
2023-04-20T01:36:29.445Z,7.35
2023-04-20T01:37:29.455Z,7.32
2023-04-20T01:38:29.422Z,7.32
2023-04-20T01:39:29.442Z,7.31
2023-04-20T01:40:29.504Z,7.33
2023-04-20T01:41:29.384Z,7.28
2023-04-20T01:42:29.458Z,7.23
2023-04-20T01:43:29.361Z,7.24
2023-04-20T01:44:29.353Z,7.25
2023-04-20T01:45:29.348Z,7.25
2023-04-20T01:46:29.493Z,7.24
2023-04-20T01:47:29.382Z,7.14
2023-04-20T01:48:29.352Z,7.17
2023-04-20T01:49:29.328Z,7.17
2023-04-20T01:50:29.300Z,7.14
2023-04-20T01:51:29.367Z,7.13
2023-04-20T01:52:29.292Z,7.18
2023-04-20T01:53:29.270Z,7.21
2023-04-20T01:54:29.396Z,7.13
2023-04-20T01:55:29.269Z,7.20
2023-04-20T01:56:29.236Z,7.06
2023-04-20T01:57:29.217Z,7.13
2023-04-20T01:58:29.232Z,7.07
2023-04-20T01:59:29.279Z,7.05
2023-04-20T02:00:29.190Z,7.10
2023-04-20T02:01:29.343Z,7.06
2023-04-20T02:02:29.372Z,6.97
2023-04-20T02:03:29.541Z,7.02
2023-04-20T02:04:29.153Z,7.00
2023-04-20T02:05:29.195Z,6.97
2023-04-20T02:06:29.285Z,7.02
2023-04-20T02:07:29.122Z,6.89
2023-04-20T02:08:29.138Z,6.89
2023-04-20T02:09:29.117Z,6.89
2023-04-20T02:10:29.159Z,6.89
2023-04-20T02:11:29.086Z,6.93
2023-04-20T02:12:29.098Z,6.93
2023-04-20T02:13:29.128Z,6.97
2023-04-20T02:14:29.065Z,6.99
2023-04-20T02:15:29.035Z,6.92
2023-04-20T02:16:29.145Z,6.85
2023-04-20T02:17:29.033Z,6.87
2023-04-20T02:18:29.090Z,6.84
2023-04-20T02:19:28.997Z,6.92
2023-04-20T02:20:28.976Z,6.85
2023-04-20T02:21:28.997Z,6.85
2023-04-20T02:22:29.010Z,6.84
2023-04-20T02:23:29.002Z,6.89
2023-04-20T02:24:28.995Z,6.89
2023-04-20T02:25:28.919Z,6.85
2023-04-20T02:26:28.921Z,6.93
2023-04-20T02:27:28.950Z,6.81
2023-04-20T02:28:28.897Z,6.87
2023-04-20T02:29:28.935Z,6.85
2023-04-20T02:30:28.893Z,6.84
2023-04-20T02:31:28.916Z,6.77
2023-04-20T02:32:28.946Z,6.81
2023-04-20T02:33:28.904Z,6.81
2023-04-20T02:34:28.840Z,6.79
2023-04-20T02:35:28.842Z,6.78
2023-04-20T02:36:28.812Z,6.84
2023-04-20T02:37:28.805Z,6.79
2023-04-20T02:38:28.848Z,6.79
2023-04-20T02:39:28.791Z,6.78
2023-04-20T02:40:28.784Z,6.75
2023-04-20T02:41:28.773Z,6.74
2023-04-20T02:42:28.753Z,6.78
2023-04-20T02:43:28.806Z,6.81
2023-04-20T02:44:28.736Z,6.72
2023-04-20T02:45:28.733Z,6.72
2023-04-20T02:46:28.777Z,6.74
2023-04-20T02:47:28.757Z,6.75
2023-04-20T02:48:28.699Z,6.78
2023-04-20T02:49:28.743Z,6.69
2023-04-20T02:50:28.755Z,6.70
2023-04-20T02:51:28.654Z,6.77
2023-04-20T02:52:28.642Z,6.70
2023-04-20T02:53:28.723Z,6.66
2023-04-20T02:54:28.894Z,6.64
2023-04-20T02:55:28.617Z,6.69
2023-04-20T02:56:28.608Z,6.66
2023-04-20T02:57:28.582Z,6.67
2023-04-20T02:58:28.586Z,6.62
2023-04-20T02:59:28.632Z,6.66
2023-04-20T03:00:28.592Z,6.64
2023-04-20T03:01:28.632Z,6.62
2023-04-20T03:02:28.645Z,6.64
2023-04-20T03:03:28.647Z,6.59
2023-04-20T03:04:28.689Z,6.57
2023-04-20T03:05:28.524Z,6.63
2023-04-20T03:06:28.582Z,6.62
2023-04-20T03:07:28.495Z,6.66
2023-04-20T03:08:28.499Z,6.60
2023-04-20T03:09:28.463Z,6.62
2023-04-20T03:10:28.573Z,6.54
2023-04-20T03:11:28.479Z,6.51
2023-04-20T03:12:28.426Z,6.59
2023-04-20T03:13:28.438Z,6.51
2023-04-20T03:14:28.418Z,6.48
2023-04-20T03:15:28.471Z,6.52
2023-04-20T03:16:28.499Z,6.41
2023-04-20T03:17:28.420Z,6.46
2023-04-20T03:18:28.371Z,6.49
2023-04-20T03:19:28.429Z,6.42
2023-04-20T03:20:28.384Z,6.46
2023-04-20T03:21:28.407Z,6.44
2023-04-20T03:22:28.427Z,6.44
2023-04-20T03:23:28.351Z,6.38
2023-04-20T03:24:28.317Z,6.35
2023-04-20T03:25:28.303Z,6.44
2023-04-20T03:26:28.299Z,6.30
2023-04-20T03:27:28.339Z,6.44
2023-04-20T03:28:28.280Z,6.36
2023-04-20T03:29:28.264Z,6.44
2023-04-20T03:30:28.285Z,6.44
2023-04-20T03:31:28.370Z,6.46
2023-04-20T03:32:28.614Z,6.41
2023-04-20T03:33:28.248Z,6.44
2023-04-20T03:34:28.198Z,6.41
2023-04-20T03:35:28.200Z,6.45
2023-04-20T03:36:28.253Z,6.41
2023-04-20T03:37:28.235Z,6.38
2023-04-20T03:38:28.186Z,6.35
2023-04-20T03:39:28.164Z,6.39
2023-04-20T03:40:28.146Z,6.36
2023-04-20T03:41:28.198Z,6.35
2023-04-20T03:42:28.198Z,6.38
2023-04-20T03:43:28.113Z,6.39
2023-04-20T03:44:28.128Z,6.31
2023-04-20T03:45:28.161Z,6.36
2023-04-20T03:46:28.195Z,6.39
2023-04-20T03:47:28.095Z,6.28
2023-04-20T03:48:28.099Z,6.38
2023-04-20T03:49:28.053Z,6.28
2023-04-20T03:50:28.044Z,6.35
2023-04-20T03:51:28.075Z,6.30
2023-04-20T03:52:28.036Z,6.33
2023-04-20T03:53:28.016Z,6.35
2023-04-20T03:54:28.128Z,6.31
2023-04-20T03:55:28.049Z,6.28
2023-04-20T03:56:28.006Z,6.26
2023-04-20T03:57:28.016Z,6.33
2023-04-20T03:58:27.975Z,6.30
2023-04-20T03:59:27.967Z,6.35
2023-04-20T04:00:27.937Z,6.31
2023-04-20T04:01:27.935Z,6.31
2023-04-20T04:02:28.066Z,6.31
2023-04-20T04:03:28.025Z,6.31
2023-04-20T04:04:28.149Z,6.20
2023-04-20T04:05:28.016Z,6.27
2023-04-20T04:06:27.868Z,6.19
2023-04-20T04:07:27.851Z,6.22
2023-04-20T04:08:27.884Z,6.33
2023-04-20T04:09:27.913Z,6.26
2023-04-20T04:10:27.854Z,6.20
2023-04-20T04:11:27.811Z,6.24
2023-04-20T04:12:27.871Z,6.28
2023-04-20T04:13:27.833Z,6.31
2023-04-20T04:14:27.791Z,6.30
2023-04-20T04:15:27.783Z,6.28
2023-04-20T04:16:27.792Z,6.30
2023-04-20T04:17:27.859Z,6.30
2023-04-20T04:18:27.747Z,6.27
2023-04-20T04:19:27.768Z,6.30
2023-04-20T04:20:27.738Z,6.28
2023-04-20T04:21:27.735Z,6.30
2023-04-20T04:22:29.302Z,6.33
2023-04-20T04:23:27.700Z,6.30
2023-04-20T04:24:27.687Z,6.30
2023-04-20T04:25:27.692Z,6.35
2023-04-20T04:26:27.689Z,6.20
2023-04-20T04:27:27.716Z,6.35
2023-04-20T04:28:27.644Z,6.31
2023-04-20T04:29:27.637Z,6.26
2023-04-20T04:30:27.620Z,6.20
2023-04-20T04:31:27.722Z,6.26
2023-04-20T04:32:27.673Z,6.24
2023-04-20T04:33:27.597Z,6.24
2023-04-20T04:34:27.586Z,6.22
2023-04-20T04:35:27.609Z,6.24
2023-04-20T04:36:27.574Z,6.27
2023-04-20T04:37:27.630Z,6.22
2023-04-20T04:38:27.556Z,6.27
2023-04-20T04:39:27.530Z,6.22
2023-04-20T04:40:27.505Z,6.22
2023-04-20T04:41:27.501Z,6.22
2023-04-20T04:42:27.618Z,6.26
2023-04-20T04:43:27.496Z,6.22
2023-04-20T04:44:27.472Z,6.27
2023-04-20T04:45:27.468Z,6.30
2023-04-20T04:46:27.543Z,6.17
2023-04-20T04:47:27.574Z,6.22
2023-04-20T04:48:27.438Z,6.19
2023-04-20T04:49:27.487Z,6.17
2023-04-20T04:50:27.423Z,6.19
2023-04-20T04:51:27.466Z,6.14
2023-04-20T04:52:27.391Z,6.14
2023-04-20T04:53:27.394Z,6.16
2023-04-20T04:54:27.381Z,6.17
2023-04-20T04:55:27.437Z,6.08
2023-04-20T04:56:27.360Z,6.16
2023-04-20T04:57:27.371Z,6.19
2023-04-20T04:58:27.374Z,6.19
2023-04-20T04:59:27.314Z,6.08
2023-04-20T05:00:27.377Z,6.08
2023-04-20T05:01:27.325Z,6.08
2023-04-20T05:02:27.492Z,6.11
2023-04-20T05:03:27.371Z,6.12
2023-04-20T05:04:27.366Z,6.11
2023-04-20T05:05:27.330Z,6.09
2023-04-20T05:06:27.301Z,6.16
2023-04-20T05:07:27.220Z,6.08
2023-04-20T05:08:27.243Z,6.09
2023-04-20T05:09:27.217Z,6.08
2023-04-20T05:10:27.200Z,6.20
2023-04-20T05:11:27.250Z,6.11
2023-04-20T05:12:27.190Z,6.11
2023-04-20T05:13:27.170Z,6.14
2023-04-20T05:14:27.192Z,6.11
2023-04-20T05:15:27.150Z,6.12
2023-04-20T05:16:27.243Z,6.12
2023-04-20T05:17:27.163Z,6.07
2023-04-20T05:18:27.122Z,6.07
2023-04-20T05:19:27.101Z,6.11
2023-04-20T05:20:27.147Z,6.08
2023-04-20T05:21:27.159Z,6.07
2023-04-20T05:22:27.097Z,6.12
2023-04-20T05:23:27.082Z,6.17
2023-04-20T05:24:27.062Z,6.11
2023-04-20T05:25:27.071Z,6.14
2023-04-20T05:26:27.110Z,6.07
2023-04-20T05:27:27.067Z,6.17
2023-04-20T05:28:27.033Z,6.08
2023-04-20T05:29:27.041Z,6.05
2023-04-20T05:30:27.072Z,6.14
2023-04-20T05:31:27.134Z,6.12
2023-04-20T05:32:27.010Z,6.09
2023-04-20T05:33:26.971Z,6.14
2023-04-20T05:34:26.963Z,6.08
2023-04-20T05:35:26.950Z,6.11
2023-04-20T05:36:26.997Z,6.11
2023-04-20T05:37:26.916Z,6.09
2023-04-20T05:38:26.909Z,6.11
2023-04-20T05:39:26.909Z,6.11
2023-04-20T05:40:27.024Z,6.11
2023-04-20T05:41:26.885Z,6.17
2023-04-20T05:42:26.925Z,6.11
2023-04-20T05:43:26.877Z,6.09
2023-04-20T05:44:26.894Z,6.11
2023-04-20T05:45:26.844Z,6.12
2023-04-20T05:46:27.123Z,6.11
2023-04-20T05:47:26.814Z,6.08
2023-04-20T05:48:29.551Z,6.11
2023-04-20T05:49:26.792Z,6.11
2023-04-20T05:50:26.779Z,6.11
2023-04-20T05:51:26.847Z,6.11
2023-04-20T05:52:26.802Z,6.12
2023-04-20T05:53:26.767Z,6.12
2023-04-20T05:54:26.815Z,6.01
2023-04-20T05:55:26.762Z,6.05
2023-04-20T05:56:26.710Z,6.07
2023-04-20T05:57:26.755Z,6.02
2023-04-20T05:58:26.708Z,6.05
2023-04-20T05:59:26.765Z,6.02
2023-04-20T06:00:27.314Z,5.94
2023-04-20T06:01:26.694Z,5.91
2023-04-20T06:02:26.865Z,6.05
2023-04-20T06:03:26.914Z,5.97
2023-04-20T06:04:27.004Z,6.04
2023-04-20T06:05:26.744Z,6.02
2023-04-20T06:06:27.037Z,6.01
2023-04-20T06:07:26.728Z,6.07
2023-04-20T06:08:26.618Z,6.09
2023-04-20T06:09:26.601Z,6.04
2023-04-20T06:10:26.601Z,6.07
2023-04-20T06:11:26.589Z,6.08
2023-04-20T06:12:26.869Z,5.98
2023-04-20T06:13:26.575Z,5.98
2023-04-20T06:14:26.606Z,6.01
2023-04-20T06:15:26.691Z,6.02
2023-04-20T06:16:26.641Z,6.01
2023-04-20T06:17:26.509Z,6.05
2023-04-20T06:18:26.581Z,6.08
2023-04-20T06:19:27.381Z,6.07
2023-04-20T06:20:26.513Z,6.01
2023-04-20T06:21:26.463Z,6.05
2023-04-20T06:22:26.471Z,6.02
2023-04-20T06:23:26.446Z,6.01
2023-04-20T06:24:26.521Z,6.04
2023-04-20T06:25:26.417Z,6.04
2023-04-20T06:26:26.415Z,6.09
2023-04-20T06:27:26.450Z,6.08
2023-04-20T06:28:26.414Z,6.09
2023-04-20T06:29:26.438Z,6.11
2023-04-20T06:30:26.399Z,5.99
2023-04-20T06:31:26.420Z,6.11
2023-04-20T06:32:26.381Z,6.09
2023-04-20T06:33:26.339Z,6.09
2023-04-20T06:34:26.410Z,6.07
2023-04-20T06:35:26.314Z,6.17
2023-04-20T06:36:26.306Z,6.20
2023-04-20T06:37:26.346Z,6.11
2023-04-20T06:38:26.282Z,6.08
2023-04-20T06:39:26.356Z,6.17
2023-04-20T06:40:26.306Z,6.17
2023-04-20T06:41:26.257Z,6.09
2023-04-20T06:42:26.236Z,6.17
2023-04-20T06:43:26.248Z,6.17
2023-04-20T06:44:26.284Z,6.12
2023-04-20T06:45:26.215Z,6.26
2023-04-20T06:46:26.236Z,6.24
2023-04-20T06:47:26.217Z,6.30
2023-04-20T06:48:32.353Z,6.35
2023-04-20T06:49:27.232Z,6.35
2023-04-20T06:50:26.820Z,6.33
2023-04-20T06:51:26.176Z,6.35
2023-04-20T06:52:26.157Z,6.38
2023-04-20T06:53:26.216Z,6.30
2023-04-20T06:54:26.179Z,6.38
2023-04-20T06:55:26.106Z,6.41
2023-04-20T06:56:26.104Z,6.38
2023-04-20T06:57:26.100Z,6.39
2023-04-20T06:58:26.085Z,6.31
2023-04-20T06:59:26.119Z,6.36
2023-04-20T07:00:26.088Z,6.39
2023-04-20T07:01:26.073Z,6.36
2023-04-20T07:02:26.083Z,6.28
2023-04-20T07:03:26.154Z,6.35
2023-04-20T07:04:26.026Z,6.35
2023-04-20T07:05:26.038Z,6.39
2023-04-20T07:06:25.993Z,6.44
2023-04-20T07:07:25.985Z,6.38
2023-04-20T07:08:25.962Z,6.44
2023-04-20T07:09:25.959Z,6.30
2023-04-20T07:10:26.066Z,6.36
2023-04-20T07:11:26.030Z,6.44
2023-04-20T07:12:25.919Z,6.39
2023-04-20T07:13:25.940Z,6.39
2023-04-20T07:14:25.905Z,6.48
2023-04-20T07:15:25.895Z,6.49
2023-04-20T07:16:26.026Z,6.56
2023-04-20T07:17:25.981Z,6.54
2023-04-20T07:18:25.858Z,6.59
2023-04-20T07:19:25.856Z,6.64
2023-04-20T07:20:25.897Z,6.60
2023-04-20T07:21:25.889Z,6.62
2023-04-20T07:22:25.851Z,6.69
2023-04-20T07:23:25.834Z,6.66
2023-04-20T07:24:25.817Z,6.69
2023-04-20T07:25:25.865Z,6.70
2023-04-20T07:26:25.804Z,6.70
2023-04-20T07:27:25.857Z,6.85
2023-04-20T07:28:25.768Z,6.79
2023-04-20T07:29:25.741Z,6.85
2023-04-20T07:30:25.811Z,6.79
2023-04-20T07:31:25.772Z,6.87
2023-04-20T07:32:25.845Z,6.79
2023-04-20T07:33:25.700Z,6.75
2023-04-20T07:34:25.702Z,6.84
2023-04-20T07:35:25.684Z,6.84
2023-04-20T07:36:25.700Z,6.82
2023-04-20T07:37:27.273Z,6.81
2023-04-20T07:38:25.690Z,6.87
2023-04-20T07:39:25.667Z,6.88
2023-04-20T07:40:25.725Z,6.88
2023-04-20T07:41:25.681Z,6.87
2023-04-20T07:42:25.641Z,6.85
2023-04-20T07:43:25.628Z,6.87
2023-04-20T07:44:25.646Z,6.85
2023-04-20T07:45:25.583Z,6.82
2023-04-20T07:46:25.687Z,6.82
2023-04-20T07:47:25.592Z,6.93
2023-04-20T07:48:25.604Z,6.89
2023-04-20T07:49:25.852Z,6.89
2023-04-20T07:50:25.600Z,6.97
2023-04-20T07:51:25.523Z,6.96
2023-04-20T07:52:25.538Z,6.89
2023-04-20T07:53:25.566Z,6.97
2023-04-20T07:54:25.526Z,7.00
2023-04-20T07:55:25.582Z,6.87
2023-04-20T07:56:25.483Z,6.93
2023-04-20T07:57:25.463Z,6.97
2023-04-20T07:58:25.521Z,7.00
2023-04-20T07:59:25.461Z,6.87
2023-04-20T08:00:25.500Z,6.96
2023-04-20T08:01:25.426Z,6.89
2023-04-20T08:02:25.564Z,6.97
2023-04-20T08:03:25.586Z,7.00
2023-04-20T08:04:25.578Z,6.88
2023-04-20T08:05:25.421Z,6.84
2023-04-20T08:06:25.500Z,6.99
2023-04-20T08:07:25.366Z,6.92
2023-04-20T08:08:25.456Z,6.95
2023-04-20T08:09:25.593Z,7.00
2023-04-20T08:10:25.624Z,7.00
2023-04-20T08:11:25.310Z,6.99
2023-04-20T08:12:25.362Z,6.99
2023-04-20T08:13:25.317Z,6.97
2023-04-20T08:14:25.287Z,7.05
2023-04-20T08:15:25.289Z,6.99
2023-04-20T08:16:25.329Z,7.00
2023-04-20T08:17:25.325Z,7.07
2023-04-20T08:18:25.250Z,6.97
2023-04-20T08:19:25.322Z,7.05
2023-04-20T08:20:25.270Z,7.02
2023-04-20T08:21:25.932Z,7.07
2023-04-20T08:22:25.419Z,6.99
2023-04-20T08:23:25.201Z,7.02
2023-04-20T08:24:25.270Z,7.06
2023-04-20T08:25:25.405Z,6.97
2023-04-20T08:26:25.200Z,7.05
2023-04-20T08:27:25.196Z,7.06
2023-04-20T08:28:33.596Z,6.97
2023-04-20T08:29:26.213Z,6.95
2023-04-20T08:30:25.146Z,7.06
2023-04-20T08:31:25.141Z,7.11
2023-04-20T08:32:25.109Z,7.15
2023-04-20T08:33:25.148Z,7.17
2023-04-20T08:34:25.114Z,7.28
2023-04-20T08:35:25.063Z,7.32
2023-04-20T08:36:25.063Z,7.29
2023-04-20T08:37:25.047Z,7.48
2023-04-20T08:38:33.671Z,7.56
2023-04-20T08:39:26.056Z,7.58
2023-04-20T08:40:25.066Z,7.66
2023-04-20T08:41:24.998Z,7.77
2023-04-20T08:42:25.087Z,7.87
2023-04-20T08:43:24.996Z,7.93
2023-04-20T08:44:24.973Z,8.01
2023-04-20T08:45:25.073Z,8.10
2023-04-20T08:46:25.013Z,8.06
2023-04-20T08:47:24.944Z,8.12
2023-04-20T08:48:24.958Z,8.19
2023-04-20T08:49:24.920Z,8.10
2023-04-20T08:50:24.989Z,8.13
2023-04-20T08:51:24.885Z,8.13
2023-04-20T08:52:24.878Z,8.23
2023-04-20T08:53:24.949Z,8.44
2023-04-20T08:54:24.953Z,8.51
2023-04-20T08:55:24.925Z,8.61
2023-04-20T08:56:24.911Z,8.64
2023-04-20T08:57:24.841Z,8.73
2023-04-20T08:58:24.885Z,8.81
2023-04-20T08:59:24.839Z,8.82
2023-04-20T09:00:24.790Z,8.84
2023-04-20T09:01:34.635Z,8.74
2023-04-20T09:02:26.540Z,8.74
2023-04-20T09:03:24.993Z,8.67
2023-04-20T09:04:25.590Z,8.63
2023-04-20T09:05:24.865Z,8.53
2023-04-20T09:06:24.801Z,8.45
2023-04-20T09:07:24.739Z,8.45
2023-04-20T09:08:24.730Z,8.48
2023-04-20T09:09:24.706Z,8.48
2023-04-20T09:10:24.685Z,8.53
2023-04-20T09:11:24.742Z,8.61
2023-04-20T09:12:24.739Z,8.64
2023-04-20T09:13:24.649Z,8.66
2023-04-20T09:14:24.675Z,8.69
2023-04-20T09:15:24.738Z,8.67
2023-04-20T09:16:24.681Z,8.63
2023-04-20T09:17:24.637Z,8.61
2023-04-20T09:18:24.606Z,8.69
2023-04-20T09:19:24.715Z,8.69
2023-04-20T09:20:24.601Z,8.74
2023-04-20T09:21:25.608Z,8.82
2023-04-20T09:22:24.565Z,8.87
2023-04-20T09:23:24.620Z,8.99
2023-04-20T09:24:24.647Z,9.02
2023-04-20T09:25:24.520Z,9.13
2023-04-20T09:26:24.536Z,9.02
2023-04-20T09:27:24.523Z,8.97
2023-04-20T09:28:24.497Z,9.04
2023-04-20T09:29:24.565Z,9.08
2023-04-20T09:30:24.554Z,9.16
2023-04-20T09:31:24.529Z,9.16
2023-04-20T09:32:24.490Z,9.18
2023-04-20T09:33:24.451Z,9.16
2023-04-20T09:34:24.456Z,9.00
2023-04-20T09:35:24.517Z,8.92
2023-04-20T09:36:24.405Z,8.89
2023-04-20T09:37:24.398Z,8.95
2023-04-20T09:38:24.385Z,8.88
2023-04-20T09:39:24.370Z,8.92
2023-04-20T09:40:24.431Z,8.82
2023-04-20T09:41:24.411Z,9.02
2023-04-20T09:42:24.351Z,9.18
2023-04-20T09:43:24.363Z,9.21
2023-04-20T09:44:24.338Z,9.31
2023-04-20T09:45:24.396Z,9.28
2023-04-20T09:46:24.486Z,9.25
2023-04-20T09:47:24.364Z,9.26
2023-04-20T09:48:24.316Z,9.18
2023-04-20T09:49:24.279Z,9.28
2023-04-20T09:50:32.007Z,9.29
2023-04-20T09:51:25.265Z,9.34
2023-04-20T09:52:24.251Z,9.36
2023-04-20T09:53:24.251Z,9.43
2023-04-20T09:54:24.253Z,9.50
2023-04-20T09:55:24.263Z,9.43
2023-04-20T09:56:24.205Z,9.39
2023-04-20T09:57:24.195Z,9.36
2023-04-20T09:58:24.182Z,9.36
2023-04-20T09:59:24.181Z,9.28
2023-04-20T10:00:24.223Z,9.10
2023-04-20T10:01:24.188Z,9.10
2023-04-20T10:02:24.490Z,9.03
2023-04-20T10:03:24.204Z,9.02
2023-04-20T10:04:24.540Z,8.99
2023-04-20T10:05:24.112Z,8.94
2023-04-20T10:06:24.165Z,8.89
2023-04-20T10:07:24.098Z,8.82
2023-04-20T10:08:24.072Z,8.94
2023-04-20T10:09:24.094Z,9.00
2023-04-20T10:10:24.088Z,9.00
2023-04-20T10:11:24.114Z,9.02
2023-04-20T10:12:24.043Z,9.06
2023-04-20T10:13:24.084Z,9.13
2023-04-20T10:14:24.022Z,9.13
2023-04-20T10:15:24.010Z,9.19
2023-04-20T10:16:24.023Z,9.11
2023-04-20T10:17:24.113Z,9.03
2023-04-20T10:18:24.461Z,9.03
2023-04-20T10:19:23.969Z,8.95
2023-04-20T10:20:23.952Z,8.97
2023-04-20T10:21:23.947Z,8.88
2023-04-20T10:22:23.986Z,8.99
2023-04-20T10:23:23.924Z,8.95
2023-04-20T10:24:24.370Z,9.08
2023-04-20T10:25:24.003Z,9.02
2023-04-20T10:26:23.950Z,9.11
2023-04-20T10:27:23.954Z,9.08
2023-04-20T10:28:23.942Z,9.29
2023-04-20T10:29:23.864Z,9.44
2023-04-20T10:30:23.856Z,9.46
2023-04-20T10:31:23.910Z,9.61
2023-04-20T10:32:23.850Z,9.62
2023-04-20T10:33:23.830Z,9.66
2023-04-20T10:34:23.884Z,9.66
2023-04-20T10:35:23.801Z,9.91
2023-04-20T10:36:23.772Z,10.07
2023-04-20T10:37:23.770Z,10.23
2023-04-20T10:38:23.814Z,10.40
2023-04-20T10:39:23.957Z,10.51
2023-04-20T10:40:23.733Z,10.56
2023-04-20T10:41:23.792Z,10.41
2023-04-20T10:42:23.718Z,10.38
2023-04-20T10:43:23.765Z,10.34
2023-04-20T10:44:23.716Z,10.31
2023-04-20T10:45:23.741Z,10.44
2023-04-20T10:46:23.731Z,10.20
2023-04-20T10:47:23.692Z,10.17
2023-04-20T10:48:23.789Z,10.04
2023-04-20T10:49:23.691Z,9.95
2023-04-20T10:50:23.661Z,9.91
2023-04-20T10:51:23.645Z,9.95
2023-04-20T10:52:23.628Z,9.98
2023-04-20T10:53:23.687Z,10.02
2023-04-20T10:54:23.583Z,9.98
2023-04-20T10:55:23.583Z,9.86
2023-04-20T10:56:23.606Z,9.89
2023-04-20T10:57:23.552Z,9.84
2023-04-20T10:58:23.689Z,9.82
2023-04-20T10:59:23.536Z,9.76
2023-04-20T11:00:23.554Z,9.82
2023-04-20T11:01:23.531Z,9.87
2023-04-20T11:02:23.804Z,9.94
2023-04-20T11:03:23.635Z,9.95
2023-04-20T11:04:23.591Z,10.01
2023-04-20T11:05:23.645Z,10.01
2023-04-20T11:06:24.515Z,10.09
2023-04-20T11:07:23.464Z,10.04
2023-04-20T11:08:23.452Z,10.05
2023-04-20T11:09:23.447Z,10.07
2023-04-20T11:10:23.521Z,9.92
2023-04-20T11:11:23.404Z,9.94
2023-04-20T11:12:23.400Z,9.92
2023-04-20T11:13:23.404Z,9.84
2023-04-20T11:14:23.449Z,9.82
2023-04-20T11:15:23.422Z,9.84
2023-04-20T11:16:28.163Z,9.80
2023-04-20T11:17:24.407Z,9.80
2023-04-20T11:18:23.382Z,9.86
2023-04-20T11:19:23.389Z,9.95
2023-04-20T11:20:23.302Z,10.01
2023-04-20T11:21:23.383Z,10.01
2023-04-20T11:22:23.343Z,10.12
2023-04-20T11:23:23.289Z,10.22
2023-04-20T11:24:23.283Z,10.20
2023-04-20T11:25:23.271Z,10.25
2023-04-20T11:26:23.320Z,10.34
2023-04-20T11:27:23.252Z,10.30
2023-04-20T11:28:23.284Z,10.28
2023-04-20T11:29:23.241Z,10.33
2023-04-20T11:30:23.207Z,10.28
2023-04-20T11:31:23.480Z,10.31
2023-04-20T11:32:23.427Z,10.34
2023-04-20T11:33:23.339Z,10.38
2023-04-20T11:34:23.166Z,10.34
2023-04-20T11:35:23.156Z,10.37
2023-04-20T11:36:23.209Z,10.26
2023-04-20T11:37:23.114Z,10.31
2023-04-20T11:38:23.127Z,10.35
2023-04-20T11:39:23.142Z,10.30
2023-04-20T11:40:23.090Z,10.34
2023-04-20T11:41:23.136Z,10.38
2023-04-20T11:42:23.080Z,10.51
2023-04-20T11:43:23.068Z,10.72
2023-04-20T11:44:23.054Z,10.78
2023-04-20T11:45:23.049Z,10.96
2023-04-20T11:46:23.153Z,11.10
2023-04-20T11:47:23.069Z,11.19
2023-04-20T11:48:23.017Z,11.30
2023-04-20T11:49:23.004Z,11.36
2023-04-20T11:50:23.013Z,11.29
2023-04-20T11:51:23.206Z,11.19
2023-04-20T11:52:22.989Z,11.14
2023-04-20T11:53:22.966Z,11.00
2023-04-20T11:54:22.989Z,10.96
2023-04-20T11:55:22.943Z,10.97
2023-04-20T11:56:23.144Z,10.87
2023-04-20T11:57:22.981Z,11.02
2023-04-20T11:58:22.900Z,11.15
2023-04-20T11:59:22.889Z,11.25
2023-04-20T12:00:22.893Z,11.22
2023-04-20T12:01:22.882Z,11.23
2023-04-20T12:02:23.133Z,11.27
2023-04-20T12:03:23.072Z,11.41
2023-04-20T12:04:23.407Z,11.43
2023-04-20T12:05:22.998Z,11.41
2023-04-20T12:06:22.827Z,11.55
2023-04-20T12:07:22.875Z,11.37
2023-04-20T12:08:22.806Z,11.41
2023-04-20T12:09:22.822Z,11.26
2023-04-20T12:10:22.867Z,11.26
2023-04-20T12:11:22.802Z,11.18
2023-04-20T12:12:22.828Z,11.02
2023-04-20T12:13:22.763Z,11.10
2023-04-20T12:14:22.741Z,11.07
2023-04-20T12:15:22.749Z,11.00
2023-04-20T12:16:22.791Z,11.00
2023-04-20T12:17:22.931Z,10.99
2023-04-20T12:18:22.702Z,10.86
2023-04-20T12:19:22.695Z,11.00
2023-04-20T12:20:22.691Z,11.04
2023-04-20T12:21:22.672Z,11.14
2023-04-20T12:22:22.724Z,11.10
2023-04-20T12:23:22.749Z,11.00
2023-04-20T12:24:22.675Z,10.90
2023-04-20T12:25:22.678Z,10.76
2023-04-20T12:26:27.064Z,10.72
2023-04-20T12:27:23.669Z,10.68
2023-04-20T12:28:22.602Z,10.54
2023-04-20T12:29:22.582Z,10.49
2023-04-20T12:30:23.586Z,10.56
2023-04-20T12:31:24.470Z,10.42
2023-04-20T12:32:22.686Z,10.49
2023-04-20T12:33:22.569Z,10.40
2023-04-20T12:34:22.537Z,10.42
2023-04-20T12:35:22.511Z,10.44
2023-04-20T12:36:22.601Z,10.49
2023-04-20T12:37:22.499Z,10.53
2023-04-20T12:38:22.499Z,10.49
2023-04-20T12:39:22.543Z,10.56
2023-04-20T12:40:22.458Z,10.56
2023-04-20T12:41:22.475Z,10.67
2023-04-20T12:42:22.478Z,10.69
2023-04-20T12:43:22.432Z,10.78
2023-04-20T12:44:22.632Z,10.90
2023-04-20T12:45:22.399Z,10.96
2023-04-20T12:46:22.465Z,11.07
2023-04-20T12:47:22.427Z,11.17
2023-04-20T12:48:22.615Z,11.29
2023-04-20T12:49:22.561Z,11.37
2023-04-20T12:50:22.367Z,11.43
2023-04-20T12:51:22.363Z,11.57
2023-04-20T12:52:22.340Z,11.50
2023-04-20T12:53:22.335Z,11.55
2023-04-20T12:54:22.338Z,11.54
2023-04-20T12:55:22.371Z,11.41
2023-04-20T12:56:22.299Z,11.36
2023-04-20T12:57:22.298Z,11.51
2023-04-20T12:58:22.388Z,11.48
2023-04-20T12:59:22.280Z,11.45
2023-04-20T13:00:22.256Z,11.40
2023-04-20T13:01:22.394Z,11.36
2023-04-20T13:02:22.365Z,11.45
2023-04-20T13:03:22.449Z,11.54
2023-04-20T13:04:22.731Z,11.47
2023-04-20T13:05:22.214Z,11.55
2023-04-20T13:06:22.203Z,11.54
2023-04-20T13:07:22.202Z,11.50
2023-04-20T13:08:22.244Z,11.41
2023-04-20T13:09:22.181Z,11.36
2023-04-20T13:10:22.144Z,11.19
2023-04-20T13:11:22.168Z,11.14
2023-04-20T13:12:22.147Z,11.02
2023-04-20T13:13:22.191Z,10.93